Kezdőlap
METAR-TAF:

METAR-TAF

Repülőterek :

Selebi-Phikwe, Botswana

földrajzi szélesség: 22-03-19S, földrajzi hosszúság: 027-49-13E, magasság: 892 m

Jelenlegi meteorológiai megfigyelések

A jelentés 5 órával és 30 perccel ezelõtt készült, 18:00 UTC
Szélcsend
Hőmérséklet 15°C
Páratartalom 94%
Légköri nyomás 1022 hPa
Látótávolság 10 km, vagy több
felhőtlen 1500 m magasságban, és nincs gomolyfelhõ

METAR: FBSP 201800Z 00000KT CAVOK 15/14 Q1022

Idő: 01:30 (23:30 UTC)


TAF: hiányzik

Meteorológiai megfigyelések és előrejelzések több, mint 4000 repülőtéren (METAR és TAF jelentéseket).

A térképen piros és sárga pontok jelzik az elérhető meteorológiai állomásokat.

Mozgassa az egeret a pont fölött, hogy megjelenjen az állomás neve.

Azután kattintson az időjárási megfigyelések és előrejelzések megtekintéséhez.

A térkép megváltoztatása: kattintson a fekete keresztel jelölt zöld gombra ráközelítéshez, a vonallal jelölt zöld gombra távolításhoz, vagy a zöld nyilakra a szomszédos térképek eléréséhez.


METAR-TAF: